createdAt,value
2022-11-29T00:00:20.896Z,2.70
2022-11-29T00:01:42.171Z,2.70
2022-11-29T00:03:03.301Z,2.71
2022-11-29T00:04:24.700Z,2.67
2022-11-29T00:05:45.769Z,2.69
2022-11-29T00:07:07.090Z,2.67
2022-11-29T00:08:28.232Z,2.66
2022-11-29T00:09:49.451Z,2.63
2022-11-29T00:11:39.608Z,2.61
2022-11-29T00:13:00.822Z,2.64
2022-11-29T00:14:23.391Z,2.62
2022-11-29T00:15:44.509Z,2.59
2022-11-29T00:17:06.217Z,2.56
2022-11-29T00:18:28.125Z,2.57
2022-11-29T00:19:49.376Z,2.58
2022-11-29T00:21:10.561Z,2.56
2022-11-29T00:22:31.258Z,2.55
2022-11-29T00:23:52.477Z,2.56
2022-11-29T00:25:13.534Z,2.55
2022-11-29T00:26:34.907Z,2.55
2022-11-29T00:27:56.002Z,2.57
2022-11-29T00:29:17.510Z,2.58
2022-11-29T00:30:38.731Z,2.58
2022-11-29T00:32:00.257Z,2.57
2022-11-29T00:33:21.081Z,2.57
2022-11-29T00:34:42.493Z,2.55
2022-11-29T00:36:03.831Z,2.57
2022-11-29T00:37:25.162Z,2.60
2022-11-29T00:38:46.607Z,2.62
2022-11-29T00:40:08.371Z,2.60
2022-11-29T00:41:29.172Z,2.56
2022-11-29T00:42:50.325Z,2.59
2022-11-29T00:44:16.807Z,2.58
2022-11-29T00:45:40.658Z,2.62
2022-11-29T00:47:01.969Z,2.66
2022-11-29T00:48:23.531Z,2.64
2022-11-29T00:49:44.639Z,2.62
2022-11-29T00:51:06.547Z,2.65
2022-11-29T00:52:27.255Z,2.60
2022-11-29T00:53:48.263Z,2.58
2022-11-29T00:55:09.612Z,2.56
2022-11-29T00:56:30.707Z,2.55
2022-11-29T00:57:51.832Z,2.50
2022-11-29T00:59:12.960Z,2.60
2022-11-29T01:00:34.082Z,2.50
2022-11-29T01:01:55.157Z,2.49
2022-11-29T01:03:17.085Z,2.65
2022-11-29T01:04:37.927Z,2.57
2022-11-29T01:06:08.437Z,2.52
2022-11-29T01:07:29.410Z,2.48
2022-11-29T01:08:50.789Z,2.48
2022-11-29T01:10:11.785Z,2.47
2022-11-29T01:11:33.477Z,2.47
2022-11-29T01:12:55.366Z,2.49
2022-11-29T01:14:16.403Z,2.48
2022-11-29T01:15:37.643Z,2.47
2022-11-29T01:16:58.739Z,2.45
2022-11-29T01:18:20.000Z,2.50
2022-11-29T01:19:44.114Z,2.46
2022-11-29T01:21:10.514Z,2.45
2022-11-29T01:22:31.348Z,2.44
2022-11-29T01:23:54.225Z,2.43
2022-11-29T01:25:15.525Z,2.44
2022-11-29T01:26:36.359Z,2.43
2022-11-29T01:27:57.499Z,2.46
2022-11-29T01:29:18.967Z,2.48
2022-11-29T01:30:40.132Z,2.48
2022-11-29T01:32:01.229Z,2.51
2022-11-29T01:33:22.720Z,2.49
2022-11-29T01:34:44.175Z,2.52
2022-11-29T01:36:07.288Z,2.53
2022-11-29T01:37:31.484Z,2.56
2022-11-29T01:38:53.105Z,2.57
2022-11-29T01:40:14.440Z,2.56
2022-11-29T01:41:37.265Z,2.51
2022-11-29T01:42:58.389Z,2.49
2022-11-29T01:44:19.456Z,2.46
2022-11-29T01:45:40.963Z,2.44
2022-11-29T01:47:01.879Z,2.22
2022-11-29T01:48:27.718Z,2.09
2022-11-29T01:49:50.110Z,1.92
2022-11-29T01:51:11.606Z,1.91
2022-11-29T01:52:33.177Z,1.77
2022-11-29T01:53:57.375Z,1.81
2022-11-29T01:55:19.110Z,1.82
2022-11-29T01:56:42.905Z,1.82
2022-11-29T01:58:06.397Z,1.85
2022-11-29T01:59:29.694Z,1.79
2022-11-29T02:00:50.810Z,1.81
2022-11-29T02:02:22.305Z,1.74
2022-11-29T02:03:43.110Z,1.80
2022-11-29T02:05:05.445Z,1.78
2022-11-29T02:06:28.413Z,1.78
2022-11-29T02:07:52.552Z,1.81
2022-11-29T02:09:22.762Z,1.80
2022-11-29T02:11:07.707Z,1.77
2022-11-29T02:12:53.505Z,1.77
2022-11-29T02:14:26.703Z,1.71
2022-11-29T02:16:03.826Z,1.75
2022-11-29T02:17:36.739Z,1.75
2022-11-29T02:19:18.147Z,1.73
2022-11-29T02:20:47.657Z,1.76
2022-11-29T02:22:31.978Z,1.79
2022-11-29T02:24:36.102Z,1.84
2022-11-29T02:26:15.628Z,1.85
2022-11-29T02:27:45.719Z,1.86
2022-11-29T02:29:23.211Z,1.87
2022-11-29T02:30:50.339Z,1.90
2022-11-29T02:32:59.590Z,1.94
2022-11-29T02:34:53.640Z,1.98
2022-11-29T02:36:23.507Z,2.02
2022-11-29T02:37:44.398Z,2.05
2022-11-29T02:39:05.086Z,2.06
2022-11-29T02:40:50.801Z,2.12
2022-11-29T02:42:54.392Z,2.16
2022-11-29T02:44:45.717Z,2.20
2022-11-29T02:46:30.040Z,2.20
2022-11-29T02:48:02.773Z,2.21
2022-11-29T02:49:38.721Z,2.21
2022-11-29T02:51:23.509Z,2.14
2022-11-29T02:52:54.975Z,2.20
2022-11-29T02:54:50.301Z,2.23
2022-11-29T02:56:37.485Z,2.16
2022-11-29T02:58:09.680Z,2.09
2022-11-29T02:59:48.710Z,2.13
2022-11-29T03:01:16.649Z,2.06
2022-11-29T03:02:57.047Z,2.04
2022-11-29T03:04:45.740Z,2.05
2022-11-29T03:06:21.914Z,2.10
2022-11-29T03:08:01.047Z,2.07
2022-11-29T03:09:40.587Z,2.11
2022-11-29T03:11:38.149Z,2.14
2022-11-29T03:13:00.315Z,2.17
2022-11-29T03:14:39.917Z,2.20
2022-11-29T03:16:17.321Z,2.19
2022-11-29T03:18:06.637Z,2.24
2022-11-29T03:19:55.296Z,2.25
2022-11-29T03:21:45.944Z,2.27
2022-11-29T03:23:28.330Z,2.29
2022-11-29T03:25:17.038Z,2.32
2022-11-29T03:27:01.062Z,2.36
2022-11-29T03:28:24.735Z,2.39
2022-11-29T03:29:58.101Z,2.41
2022-11-29T03:31:30.037Z,2.43
2022-11-29T03:33:05.081Z,2.47
2022-11-29T03:34:55.694Z,2.48
2022-11-29T03:36:36.686Z,2.49
2022-11-29T03:38:35.308Z,2.51
2022-11-29T03:40:07.140Z,2.47
2022-11-29T03:41:40.921Z,2.45
2022-11-29T03:43:01.807Z,2.44
2022-11-29T03:44:28.069Z,2.42
2022-11-29T03:46:04.627Z,2.43
2022-11-29T03:47:36.101Z,2.44
2022-11-29T03:49:03.616Z,2.44
2022-11-29T03:50:57.552Z,2.45
2022-11-29T03:52:47.767Z,2.45
2022-11-29T03:54:13.135Z,2.44
2022-11-29T03:55:50.501Z,2.41
2022-11-29T03:57:17.732Z,2.42
2022-11-29T03:58:56.934Z,2.37
2022-11-29T04:00:18.942Z,2.34
2022-11-29T04:02:10.768Z,2.32
2022-11-29T04:03:53.313Z,2.31
2022-11-29T04:05:29.732Z,2.28
2022-11-29T04:07:12.237Z,2.29
2022-11-29T04:09:04.315Z,2.31
2022-11-29T04:10:39.609Z,2.30
2022-11-29T04:12:48.922Z,2.28
2022-11-29T04:14:26.264Z,2.27
2022-11-29T04:16:07.549Z,2.22
2022-11-29T04:17:45.163Z,2.24
2022-11-29T04:19:22.207Z,2.23
2022-11-29T04:21:01.755Z,2.21
2022-11-29T04:22:54.986Z,2.24
2022-11-29T04:24:19.198Z,2.27
2022-11-29T04:26:01.138Z,2.31
2022-11-29T04:27:48.698Z,2.32
2022-11-29T04:29:25.202Z,2.29
2022-11-29T04:31:24.140Z,2.29
2022-11-29T04:33:18.694Z,2.23
2022-11-29T04:35:17.088Z,2.19
2022-11-29T04:37:14.123Z,2.20
2022-11-29T04:38:48.809Z,2.18
2022-11-29T04:40:18.465Z,2.15
2022-11-29T04:42:24.785Z,2.13
2022-11-29T04:44:07.626Z,2.18
2022-11-29T04:46:02.452Z,2.32
2022-11-29T04:47:33.801Z,2.26
2022-11-29T04:49:35.301Z,2.11
2022-11-29T04:51:02.197Z,1.95
2022-11-29T04:52:55.509Z,1.91
2022-11-29T04:54:19.271Z,1.90
2022-11-29T04:55:53.753Z,1.82
2022-11-29T04:57:32.806Z,1.80
2022-11-29T04:59:03.611Z,1.86
2022-11-29T05:00:25.550Z,1.90
2022-11-29T05:02:11.309Z,1.95
2022-11-29T05:03:42.259Z,1.93
2022-11-29T05:05:24.530Z,1.86
2022-11-29T05:07:03.471Z,1.80
2022-11-29T05:08:38.590Z,1.90
2022-11-29T05:10:14.884Z,2.00
2022-11-29T05:11:58.746Z,2.00
2022-11-29T05:13:44.484Z,1.99
2022-11-29T05:15:14.877Z,2.00
2022-11-29T05:16:35.991Z,2.03
2022-11-29T05:18:17.314Z,2.07
2022-11-29T05:19:53.672Z,2.07
2022-11-29T05:21:24.996Z,2.16
2022-11-29T05:23:04.675Z,2.14
2022-11-29T05:24:58.959Z,2.19
2022-11-29T05:26:29.520Z,2.28
2022-11-29T05:28:25.929Z,2.30
2022-11-29T05:30:02.011Z,2.33
2022-11-29T05:31:50.362Z,2.37
2022-11-29T05:33:24.748Z,2.38
2022-11-29T05:34:57.935Z,2.38
2022-11-29T05:36:40.086Z,2.39
2022-11-29T05:38:19.604Z,2.44
2022-11-29T05:39:51.426Z,2.42
2022-11-29T05:41:18.263Z,2.43
2022-11-29T05:43:07.279Z,2.42
2022-11-29T05:44:37.989Z,2.45
2022-11-29T05:46:12.821Z,2.45
2022-11-29T05:47:46.908Z,2.47
2022-11-29T05:49:27.556Z,2.52
2022-11-29T05:50:58.377Z,2.52
2022-11-29T05:52:55.559Z,2.62
2022-11-29T05:54:33.843Z,2.66
2022-11-29T05:56:03.990Z,2.67
2022-11-29T05:57:40.320Z,2.72
2022-11-29T05:59:17.202Z,2.80
2022-11-29T06:00:49.814Z,2.85
2022-11-29T06:02:26.158Z,2.90
2022-11-29T06:04:15.146Z,2.98
2022-11-29T06:05:57.076Z,3.09
2022-11-29T06:07:26.128Z,3.04
2022-11-29T06:08:56.966Z,3.17
2022-11-29T06:10:20.006Z,3.23
2022-11-29T06:11:55.007Z,3.23
2022-11-29T06:13:31.538Z,3.20
2022-11-29T06:14:57.097Z,3.24
2022-11-29T06:16:57.203Z,3.28
2022-11-29T06:18:27.433Z,3.34
2022-11-29T06:20:27.651Z,3.37
2022-11-29T06:22:05.797Z,3.39
2022-11-29T06:23:36.648Z,3.36
2022-11-29T06:25:23.633Z,3.35
2022-11-29T06:26:44.985Z,3.40
2022-11-29T06:28:32.631Z,3.47
2022-11-29T06:30:15.026Z,3.53
2022-11-29T06:31:43.488Z,3.56
2022-11-29T06:33:28.949Z,3.61
2022-11-29T06:35:09.562Z,3.65
2022-11-29T06:37:08.217Z,3.68
2022-11-29T06:38:33.184Z,3.64
2022-11-29T06:39:57.591Z,3.64
2022-11-29T06:41:21.550Z,3.65
2022-11-29T06:42:43.182Z,3.68
2022-11-29T06:44:05.591Z,3.71
2022-11-29T06:45:27.073Z,3.77
2022-11-29T06:47:24.149Z,3.81
2022-11-29T06:48:56.568Z,3.82
2022-11-29T06:50:32.860Z,3.80
2022-11-29T06:52:18.476Z,3.80
2022-11-29T06:53:54.332Z,3.83
2022-11-29T06:55:22.643Z,3.85
2022-11-29T06:56:55.772Z,3.86
2022-11-29T06:58:34.466Z,3.93
2022-11-29T07:00:12.910Z,4.00
2022-11-29T07:01:59.722Z,4.15
2022-11-29T07:03:59.137Z,4.20
2022-11-29T07:05:30.550Z,4.19
2022-11-29T07:06:51.710Z,4.25
2022-11-29T07:08:17.332Z,4.33
2022-11-29T07:09:38.497Z,4.42
2022-11-29T07:11:00.601Z,4.47
2022-11-29T07:12:21.800Z,4.55
2022-11-29T07:13:42.778Z,4.56
2022-11-29T07:15:05.510Z,4.62
2022-11-29T07:16:34.024Z,4.64
2022-11-29T07:18:13.442Z,4.70
2022-11-29T07:19:50.905Z,4.78
2022-11-29T07:21:36.734Z,4.78
2022-11-29T07:23:10.977Z,4.83
2022-11-29T07:24:49.846Z,4.82
2022-11-29T07:26:38.487Z,4.86
2022-11-29T07:28:17.375Z,4.85
2022-11-29T07:30:14.173Z,4.91
2022-11-29T07:32:03.543Z,4.88
2022-11-29T07:33:54.792Z,4.74
2022-11-29T07:35:23.087Z,4.71
2022-11-29T07:37:00.538Z,4.78
2022-11-29T07:38:58.311Z,4.82
2022-11-29T07:40:49.825Z,4.88
2022-11-29T07:42:30.426Z,4.85
2022-11-29T07:44:30.727Z,4.89
2022-11-29T07:45:51.810Z,4.90
2022-11-29T07:47:15.597Z,4.92
2022-11-29T07:48:36.761Z,4.90
2022-11-29T07:49:57.857Z,4.89
2022-11-29T07:51:19.267Z,4.86
2022-11-29T07:52:40.477Z,4.86
2022-11-29T07:54:01.718Z,4.86
2022-11-29T07:55:26.030Z,4.85
2022-11-29T07:56:47.510Z,4.76
2022-11-29T07:58:12.830Z,4.76
2022-11-29T07:59:34.035Z,4.53
2022-11-29T08:00:54.931Z,4.47
2022-11-29T08:02:26.822Z,4.39
2022-11-29T08:03:48.193Z,4.23
2022-11-29T08:05:09.881Z,4.26
2022-11-29T08:06:31.121Z,4.08
2022-11-29T08:07:53.647Z,4.14
2022-11-29T08:09:14.849Z,4.22
2022-11-29T08:10:36.101Z,4.17
2022-11-29T08:11:57.169Z,4.02
2022-11-29T08:13:20.824Z,3.98
2022-11-29T08:14:41.916Z,3.92
2022-11-29T08:16:03.517Z,3.93
2022-11-29T08:17:25.882Z,3.95
2022-11-29T08:18:46.828Z,4.00
2022-11-29T08:20:09.726Z,4.02
2022-11-29T08:21:30.774Z,4.09
2022-11-29T08:22:57.107Z,4.16
2022-11-29T08:24:18.159Z,4.18
2022-11-29T08:25:39.837Z,4.30
2022-11-29T08:27:00.975Z,4.39
2022-11-29T08:28:22.096Z,4.47
2022-11-29T08:29:43.392Z,4.52
2022-11-29T08:31:06.930Z,4.59
2022-11-29T08:32:28.457Z,4.68
2022-11-29T08:33:49.472Z,4.77
2022-11-29T08:35:10.612Z,4.79
2022-11-29T08:36:31.880Z,4.84
2022-11-29T08:37:54.125Z,4.89
2022-11-29T08:39:15.219Z,5.00
2022-11-29T08:40:36.521Z,5.07
2022-11-29T08:41:57.448Z,5.14
2022-11-29T08:43:18.676Z,5.18
2022-11-29T08:44:39.950Z,5.20
2022-11-29T08:46:01.429Z,5.25
2022-11-29T08:47:37.568Z,5.25
2022-11-29T08:48:58.690Z,5.26
2022-11-29T08:50:19.752Z,5.38
2022-11-29T08:51:40.723Z,5.39
2022-11-29T08:53:20.322Z,5.37
2022-11-29T08:54:41.409Z,5.49
2022-11-29T08:56:17.062Z,5.44
2022-11-29T08:57:43.914Z,5.52
2022-11-29T08:59:05.781Z,5.47
2022-11-29T09:00:26.820Z,5.46
2022-11-29T09:01:48.088Z,5.49
2022-11-29T09:03:27.957Z,5.40
2022-11-29T09:04:48.873Z,5.48
2022-11-29T09:06:13.000Z,5.53
2022-11-29T09:07:34.395Z,5.59
2022-11-29T09:08:56.534Z,5.57
2022-11-29T09:10:17.528Z,5.61
2022-11-29T09:11:38.980Z,5.66
2022-11-29T09:13:00.249Z,5.69
2022-11-29T09:14:22.869Z,5.71
2022-11-29T09:15:43.974Z,5.69
2022-11-29T09:17:05.060Z,5.66
2022-11-29T09:19:50.225Z,5.76
2022-11-29T09:21:13.597Z,5.79
2022-11-29T09:22:34.377Z,5.86
2022-11-29T09:23:59.324Z,5.89
2022-11-29T09:25:20.463Z,5.91
2022-11-29T09:26:42.290Z,5.99
2022-11-29T09:28:03.580Z,5.98
2022-11-29T09:29:24.545Z,6.00
2022-11-29T09:30:45.847Z,6.06
2022-11-29T09:32:07.134Z,6.10
2022-11-29T09:33:28.379Z,6.10
2022-11-29T09:34:49.177Z,6.09
2022-11-29T09:36:11.647Z,6.07
2022-11-29T09:37:33.269Z,6.10
2022-11-29T09:38:54.516Z,6.13
2022-11-29T09:40:19.772Z,6.18
2022-11-29T09:42:01.145Z,6.21
2022-11-29T09:43:36.930Z,6.27
2022-11-29T09:45:09.584Z,6.23
2022-11-29T09:46:33.533Z,6.22
2022-11-29T09:48:03.642Z,6.20
2022-11-29T09:49:46.262Z,6.12
2022-11-29T09:51:28.139Z,6.22
2022-11-29T09:53:18.714Z,6.29
2022-11-29T09:54:51.884Z,6.33
2022-11-29T09:56:23.972Z,6.42
2022-11-29T09:57:46.116Z,6.40
2022-11-29T09:59:17.214Z,6.44
2022-11-29T10:00:47.338Z,6.45
2022-11-29T10:02:21.810Z,6.53
2022-11-29T10:03:48.762Z,6.62
2022-11-29T10:05:25.197Z,6.79
2022-11-29T10:07:06.713Z,6.86
2022-11-29T10:08:42.059Z,6.98
2022-11-29T10:10:11.269Z,6.99
2022-11-29T10:12:04.258Z,7.05
2022-11-29T10:13:26.617Z,7.13
2022-11-29T10:14:58.419Z,7.13
2022-11-29T10:17:04.440Z,7.24
2022-11-29T10:18:27.059Z,7.18
2022-11-29T10:19:53.086Z,7.31
2022-11-29T10:21:21.088Z,7.29
2022-11-29T10:23:09.471Z,7.39
2022-11-29T10:24:33.058Z,7.56
2022-11-29T10:25:56.633Z,7.49
2022-11-29T10:27:23.961Z,7.54
2022-11-29T10:28:47.737Z,7.62
2022-11-29T10:30:14.602Z,7.73
2022-11-29T10:31:39.271Z,7.80
2022-11-29T10:33:00.989Z,7.96
2022-11-29T10:34:25.533Z,8.05
2022-11-29T10:35:48.528Z,8.08
2022-11-29T10:37:32.765Z,8.18
2022-11-29T10:38:59.685Z,8.24
2022-11-29T10:40:32.306Z,8.07
2022-11-29T10:42:01.461Z,8.20
2022-11-29T10:43:23.992Z,8.14
2022-11-29T10:44:45.132Z,8.11
2022-11-29T10:46:15.572Z,7.99
2022-11-29T10:47:36.947Z,7.88
2022-11-29T10:49:04.925Z,7.81
2022-11-29T10:50:28.598Z,7.70
2022-11-29T10:51:49.709Z,7.58
2022-11-29T10:53:14.943Z,7.59
2022-11-29T10:54:42.549Z,7.49
2022-11-29T10:56:29.354Z,7.44
2022-11-29T10:58:10.569Z,7.30
2022-11-29T10:59:33.201Z,7.32
2022-11-29T11:01:15.525Z,7.22
2022-11-29T11:02:37.555Z,7.22
2022-11-29T11:04:00.613Z,7.20
2022-11-29T11:05:26.602Z,7.13
2022-11-29T11:06:56.955Z,7.11
2022-11-29T11:08:18.324Z,7.09
2022-11-29T11:09:48.717Z,7.12
2022-11-29T11:11:12.304Z,7.08
2022-11-29T11:12:34.719Z,7.07
2022-11-29T11:14:00.298Z,7.05
2022-11-29T11:15:24.109Z,7.05
2022-11-29T11:16:45.341Z,7.08
2022-11-29T11:18:21.210Z,7.04
2022-11-29T11:19:42.515Z,7.07
2022-11-29T11:21:04.762Z,7.07
2022-11-29T11:22:27.102Z,7.09
2022-11-29T11:23:54.640Z,7.07
2022-11-29T11:25:35.232Z,7.07
2022-11-29T11:26:57.135Z,7.04
2022-11-29T11:28:22.328Z,7.09
2022-11-29T11:29:44.613Z,7.11
2022-11-29T11:31:08.795Z,7.16
2022-11-29T11:32:30.142Z,7.13
2022-11-29T11:33:51.429Z,7.17
2022-11-29T11:35:24.380Z,7.18
2022-11-29T11:36:45.501Z,7.22
2022-11-29T11:38:16.076Z,7.22
2022-11-29T11:39:37.631Z,7.23
2022-11-29T11:41:18.259Z,7.22
2022-11-29T11:42:40.623Z,7.22
2022-11-29T11:44:04.517Z,7.13
2022-11-29T11:45:35.463Z,7.23
2022-11-29T11:46:56.840Z,7.24
2022-11-29T11:48:19.260Z,7.28
2022-11-29T11:49:53.565Z,7.30
2022-11-29T11:51:24.528Z,7.28
2022-11-29T11:52:52.480Z,7.29
2022-11-29T11:54:15.431Z,7.25
2022-11-29T11:55:36.390Z,7.22
2022-11-29T11:56:57.645Z,7.17
2022-11-29T11:58:22.878Z,7.19
2022-11-29T11:59:48.865Z,7.20
2022-11-29T12:01:12.702Z,7.21
2022-11-29T12:02:40.387Z,7.21
2022-11-29T12:04:27.454Z,7.25
2022-11-29T12:05:52.800Z,7.17
2022-11-29T12:07:38.750Z,7.20
2022-11-29T12:09:19.475Z,7.15
2022-11-29T12:10:41.319Z,7.08
2022-11-29T12:12:20.388Z,7.08
2022-11-29T12:13:49.075Z,7.11
2022-11-29T12:15:28.738Z,7.10
2022-11-29T12:16:55.915Z,7.08
2022-11-29T12:18:44.516Z,7.16
2022-11-29T12:20:28.612Z,7.17
2022-11-29T12:21:55.895Z,7.20
2022-11-29T12:23:16.811Z,7.24
2022-11-29T12:25:00.016Z,7.26
2022-11-29T12:28:20.072Z,7.29
2022-11-29T12:29:41.534Z,7.31
2022-11-29T12:31:37.018Z,7.38
2022-11-29T12:33:17.827Z,7.36
2022-11-29T12:35:09.125Z,7.31
2022-11-29T12:36:35.866Z,7.32
2022-11-29T12:38:12.470Z,7.31
2022-11-29T12:39:42.456Z,7.32
2022-11-29T12:41:52.435Z,7.33
2022-11-29T12:43:23.891Z,7.30
2022-11-29T12:45:01.823Z,7.33
2022-11-29T12:46:26.294Z,7.35
2022-11-29T12:48:06.086Z,7.35
2022-11-29T12:49:34.551Z,7.37
2022-11-29T12:51:02.158Z,7.36
2022-11-29T12:52:58.131Z,7.35
2022-11-29T12:54:28.225Z,7.36
2022-11-29T12:56:07.752Z,7.40
2022-11-29T12:57:35.307Z,7.44
2022-11-29T12:59:23.767Z,7.43
2022-11-29T13:00:51.456Z,7.37
2022-11-29T13:02:22.255Z,7.37
2022-11-29T13:04:06.565Z,7.40
2022-11-29T13:05:30.482Z,7.39
2022-11-29T13:07:17.387Z,7.39
2022-11-29T13:09:06.082Z,7.38
2022-11-29T13:10:32.690Z,7.34
2022-11-29T13:12:43.338Z,7.30
2022-11-29T13:14:44.372Z,7.32
2022-11-29T13:18:16.956Z,7.31
2022-11-29T13:19:55.532Z,7.25
2022-11-29T13:21:24.346Z,7.26
2022-11-29T13:22:59.981Z,7.24
2022-11-29T13:24:36.067Z,7.18
2022-11-29T13:26:05.870Z,7.20
2022-11-29T13:27:32.739Z,7.18
2022-11-29T13:28:54.526Z,7.17
2022-11-29T13:30:16.322Z,7.16
2022-11-29T13:31:39.161Z,7.11
2022-11-29T13:33:17.659Z,7.07
2022-11-29T13:34:47.441Z,7.06
2022-11-29T13:36:18.964Z,7.03
2022-11-29T13:37:51.983Z,7.06
2022-11-29T13:39:34.265Z,7.05
2022-11-29T13:41:04.802Z,7.05
2022-11-29T13:42:37.235Z,7.02
2022-11-29T13:44:32.462Z,7.00
2022-11-29T13:46:28.998Z,7.00
2022-11-29T13:47:53.367Z,6.99
2022-11-29T13:49:52.918Z,6.98
2022-11-29T13:51:24.258Z,6.97
2022-11-29T13:52:47.300Z,6.98
2022-11-29T13:54:32.858Z,6.94
2022-11-29T13:56:01.470Z,6.92
2022-11-29T13:57:22.386Z,6.96
2022-11-29T13:58:43.371Z,6.95
2022-11-29T14:00:05.452Z,6.92
2022-11-29T14:01:26.878Z,6.88
2022-11-29T14:02:48.157Z,6.88
2022-11-29T14:04:27.589Z,6.87
2022-11-29T14:05:51.054Z,6.85
2022-11-29T14:07:21.175Z,6.83
2022-11-29T14:10:38.577Z,6.81
2022-11-29T14:12:36.792Z,6.78
2022-11-29T14:14:15.820Z,6.73
2022-11-29T14:15:37.363Z,6.68
2022-11-29T14:17:04.297Z,6.65
2022-11-29T14:18:37.220Z,6.59
2022-11-29T14:20:23.107Z,6.53
2022-11-29T14:21:59.067Z,6.49
2022-11-29T14:23:40.538Z,6.48
2022-11-29T14:25:49.133Z,6.48
2022-11-29T14:27:09.147Z,6.44
2022-11-29T14:28:33.049Z,6.43
2022-11-29T14:29:55.240Z,6.40
2022-11-29T14:31:49.678Z,6.35
2022-11-29T14:33:13.995Z,6.37
2022-11-29T14:34:41.793Z,6.36
2022-11-29T14:36:14.870Z,6.36
2022-11-29T14:37:45.222Z,6.24
2022-11-29T14:39:41.185Z,6.20
2022-11-29T14:41:41.215Z,6.22
2022-11-29T14:43:14.283Z,6.23
2022-11-29T14:44:44.922Z,6.23
2022-11-29T14:46:29.002Z,6.20
2022-11-29T14:47:50.846Z,6.21
2022-11-29T14:49:23.801Z,6.19
2022-11-29T14:50:44.773Z,6.18
2022-11-29T14:52:14.854Z,6.13
2022-11-29T14:53:38.048Z,6.15
2022-11-29T14:55:21.177Z,6.18
2022-11-29T14:56:45.135Z,6.17
2022-11-29T14:58:17.230Z,6.15
2022-11-29T14:59:47.281Z,6.17
2022-11-29T15:01:11.002Z,6.14
2022-11-29T15:03:11.185Z,6.17
2022-11-29T15:04:37.807Z,6.16
2022-11-29T15:06:25.124Z,6.12
2022-11-29T15:07:54.606Z,6.01
2022-11-29T15:09:19.648Z,5.96
2022-11-29T15:10:45.018Z,5.94
2022-11-29T15:12:12.649Z,5.95
2022-11-29T15:13:36.399Z,5.98
2022-11-29T15:15:15.995Z,5.97
2022-11-29T15:16:55.122Z,5.97
2022-11-29T15:18:33.442Z,5.97
2022-11-29T15:20:16.168Z,5.96
2022-11-29T15:21:46.780Z,5.95
2022-11-29T15:23:15.655Z,5.95
2022-11-29T15:25:13.997Z,5.93
2022-11-29T15:26:34.970Z,5.93
2022-11-29T15:27:58.501Z,5.93
2022-11-29T15:29:21.445Z,5.93
2022-11-29T15:30:42.700Z,5.89
2022-11-29T15:32:05.989Z,5.88
2022-11-29T15:33:28.444Z,5.87
2022-11-29T15:34:53.373Z,5.88
2022-11-29T15:36:20.546Z,5.80
2022-11-29T15:37:44.662Z,5.83
2022-11-29T15:39:05.892Z,5.81
2022-11-29T15:40:35.644Z,5.84
2022-11-29T15:42:08.386Z,5.79
2022-11-29T15:43:37.808Z,5.80
2022-11-29T15:44:59.046Z,5.77
2022-11-29T15:46:23.808Z,5.76
2022-11-29T15:47:45.440Z,5.76
2022-11-29T15:49:26.503Z,5.77
2022-11-29T15:51:00.832Z,5.80
2022-11-29T15:52:32.189Z,5.76
2022-11-29T15:54:11.640Z,5.80
2022-11-29T15:55:33.777Z,5.80
2022-11-29T15:57:06.882Z,5.86
2022-11-29T15:58:31.394Z,5.86
2022-11-29T15:59:56.909Z,5.87
2022-11-29T16:01:21.187Z,5.90
2022-11-29T16:02:50.706Z,5.94
2022-11-29T16:04:20.210Z,5.96
2022-11-29T16:05:41.113Z,5.94
2022-11-29T16:07:04.570Z,5.96
2022-11-29T16:08:29.492Z,5.96
2022-11-29T16:10:04.154Z,5.98
2022-11-29T16:11:28.887Z,6.00
2022-11-29T16:13:04.036Z,5.97
2022-11-29T16:14:28.094Z,5.97
2022-11-29T16:15:49.487Z,5.98
2022-11-29T16:17:11.337Z,5.98
2022-11-29T16:18:32.585Z,5.99
2022-11-29T16:20:21.146Z,5.97
2022-11-29T16:21:44.369Z,5.92
2022-11-29T16:23:08.220Z,5.89
2022-11-29T16:24:29.676Z,5.88
2022-11-29T16:26:11.954Z,5.87
2022-11-29T16:27:35.308Z,5.85
2022-11-29T16:28:58.007Z,5.85
2022-11-29T16:30:24.728Z,5.78
2022-11-29T16:31:45.819Z,5.78
2022-11-29T16:33:06.933Z,5.79
2022-11-29T16:34:33.027Z,5.78
2022-11-29T16:36:19.165Z,5.76
2022-11-29T16:37:44.989Z,5.70
2022-11-29T16:39:16.168Z,5.70
2022-11-29T16:40:37.155Z,5.65
2022-11-29T16:42:08.508Z,5.64
2022-11-29T16:43:59.594Z,5.66
2022-11-29T16:45:41.053Z,5.67
2022-11-29T16:47:15.898Z,5.70
2022-11-29T16:48:40.511Z,5.69
2022-11-29T16:50:02.378Z,5.65
2022-11-29T16:51:50.297Z,5.63
2022-11-29T16:53:37.481Z,5.61
2022-11-29T16:54:59.309Z,5.57
2022-11-29T16:56:23.308Z,5.56
2022-11-29T16:57:46.025Z,5.54
2022-11-29T16:59:17.223Z,5.52
2022-11-29T17:00:47.713Z,5.51
2022-11-29T17:02:12.838Z,5.53
2022-11-29T17:03:34.605Z,5.53
2022-11-29T17:04:56.656Z,5.51
2022-11-29T17:06:24.135Z,5.51
2022-11-29T17:07:45.447Z,5.54
2022-11-29T17:09:06.546Z,5.53
2022-11-29T17:10:28.973Z,5.52
2022-11-29T17:11:50.014Z,5.52
2022-11-29T17:13:11.857Z,5.52
2022-11-29T17:14:33.454Z,5.54
2022-11-29T17:15:54.789Z,5.53
2022-11-29T17:17:17.706Z,5.52
2022-11-29T17:18:41.030Z,5.53
2022-11-29T17:20:02.216Z,5.51
2022-11-29T17:21:25.987Z,5.51
2022-11-29T17:22:46.969Z,5.48
2022-11-29T17:24:12.921Z,5.48
2022-11-29T17:25:33.845Z,5.50
2022-11-29T17:26:55.564Z,5.50
2022-11-29T17:28:16.578Z,5.52
2022-11-29T17:29:37.747Z,5.53
2022-11-29T17:30:58.786Z,5.50
2022-11-29T17:32:26.289Z,5.53
2022-11-29T17:33:48.358Z,5.52
2022-11-29T17:35:09.459Z,5.52
2022-11-29T17:36:30.745Z,5.51
2022-11-29T17:37:52.469Z,5.51
2022-11-29T17:39:15.581Z,5.51
2022-11-29T17:40:38.629Z,5.51
2022-11-29T17:42:00.160Z,5.52
2022-11-29T17:43:21.293Z,5.56
2022-11-29T17:44:42.303Z,5.55
2022-11-29T17:46:09.042Z,5.55
2022-11-29T17:47:30.260Z,5.53
2022-11-29T17:48:52.308Z,5.53
2022-11-29T17:50:13.113Z,5.52
2022-11-29T17:51:54.012Z,5.49
2022-11-29T17:53:15.621Z,5.50
2022-11-29T17:54:36.934Z,5.50
2022-11-29T17:56:05.858Z,5.50
2022-11-29T17:57:27.298Z,5.50
2022-11-29T17:58:56.290Z,5.51
2022-11-29T18:00:18.246Z,5.52
2022-11-29T18:01:45.027Z,5.53
2022-11-29T18:03:05.961Z,5.52
2022-11-29T18:04:29.629Z,5.55
2022-11-29T18:05:51.524Z,5.56
2022-11-29T18:07:14.915Z,5.55
2022-11-29T18:08:41.323Z,5.53
2022-11-29T18:10:02.373Z,5.53
2022-11-29T18:11:29.999Z,5.53
2022-11-29T18:12:51.030Z,5.51
2022-11-29T18:14:13.821Z,5.51
2022-11-29T18:15:34.948Z,5.50
2022-11-29T18:16:56.532Z,5.50
2022-11-29T18:18:17.530Z,5.49
2022-11-29T18:19:38.779Z,5.48
2022-11-29T18:21:00.915Z,5.48
2022-11-29T18:22:21.987Z,5.48
2022-11-29T18:23:43.547Z,5.47
2022-11-29T18:25:30.552Z,5.46
2022-11-29T18:26:55.373Z,5.44
2022-11-29T18:28:24.240Z,5.40
2022-11-29T18:29:49.681Z,5.42
2022-11-29T18:31:30.113Z,5.39
2022-11-29T18:32:53.770Z,5.38
2022-11-29T18:34:20.796Z,5.38
2022-11-29T18:35:44.375Z,5.40
2022-11-29T18:37:15.319Z,5.40
2022-11-29T18:38:44.912Z,5.39
2022-11-29T18:40:06.999Z,5.37
2022-11-29T18:41:30.559Z,5.38
2022-11-29T18:42:51.565Z,5.39
2022-11-29T18:44:15.614Z,5.37
2022-11-29T18:45:37.837Z,5.35
2022-11-29T18:46:59.351Z,5.33
2022-11-29T18:48:20.266Z,5.34
2022-11-29T18:49:41.557Z,5.34
2022-11-29T18:51:05.202Z,5.34
2022-11-29T18:52:26.580Z,5.31
2022-11-29T18:53:47.710Z,5.33
2022-11-29T18:55:08.625Z,5.36
2022-11-29T18:56:31.647Z,5.37
2022-11-29T18:57:53.981Z,5.37
2022-11-29T18:59:17.458Z,5.41
2022-11-29T19:00:39.274Z,5.39
2022-11-29T19:02:00.089Z,5.39
2022-11-29T19:03:21.392Z,5.43
2022-11-29T19:04:42.477Z,5.42
2022-11-29T19:06:06.834Z,5.41
2022-11-29T19:07:29.399Z,5.46
2022-11-29T19:08:52.170Z,5.45
2022-11-29T19:10:13.124Z,5.45
2022-11-29T19:11:34.992Z,5.45
2022-11-29T19:12:55.920Z,5.44
2022-11-29T19:14:18.089Z,5.40
2022-11-29T19:15:39.110Z,5.41
2022-11-29T19:17:00.232Z,5.42
2022-11-29T19:18:21.707Z,5.36
2022-11-29T19:19:43.241Z,5.40
2022-11-29T19:21:06.050Z,5.36
2022-11-29T19:22:27.105Z,5.38
2022-11-29T19:23:53.501Z,5.39
2022-11-29T19:25:14.877Z,5.39
2022-11-29T19:26:36.250Z,5.41
2022-11-29T19:27:57.209Z,5.39
2022-11-29T19:29:18.585Z,5.41
2022-11-29T19:30:39.853Z,5.39
2022-11-29T19:32:00.906Z,5.39
2022-11-29T19:33:22.146Z,5.39
2022-11-29T19:34:43.181Z,5.41
2022-11-29T19:36:11.222Z,5.37
2022-11-29T19:37:32.141Z,5.41
2022-11-29T19:38:54.280Z,5.37
2022-11-29T19:40:15.593Z,5.32
2022-11-29T19:41:37.832Z,5.30
2022-11-29T19:42:59.801Z,5.27
2022-11-29T19:44:22.972Z,5.27
2022-11-29T19:45:47.699Z,5.42
2022-11-29T19:47:09.159Z,5.34
2022-11-29T19:48:30.320Z,5.30
2022-11-29T19:49:51.470Z,5.30
2022-11-29T19:51:16.610Z,5.27
2022-11-29T19:52:37.830Z,5.27
2022-11-29T19:54:04.650Z,5.25
2022-11-29T19:55:25.675Z,5.22
2022-11-29T19:56:46.857Z,5.21
2022-11-29T19:58:08.648Z,5.15
2022-11-29T19:59:29.477Z,5.16
2022-11-29T20:00:50.471Z,5.17
2022-11-29T20:02:12.068Z,5.16
2022-11-29T20:03:34.252Z,5.15
2022-11-29T20:04:55.242Z,5.17